Ringgold, Louisiana
Current Conditions -  °F | °C
As of 3:15 AM on Wednesday 28 Jan 2015 (Local Time) from KMNE Reporting Station
Clear Clear  
Wind Chill: 47°   Ceiling: Unl
Heat Index: 50°   Visibility: 10mi
Dew Point: 37°   Wind: 6mph
Humidity: 62%   Direction: 110°ESE
Pressure: 30.17"   Gusts: NA
Location:  32.33°N, 93.28°W
Report Text: KMNE 280915Z AUTO 11005KT 10SM CLR 10/03 A3017 RMK AO2 T00980029
Loading
Personal Weather Stations






























Interactive Weather Map New forecast layout! Learn more

10-Day Weather Forecast

Advertisements
Track Severe Weather on mobile